createdAt,value
2023-05-03T00:00:13.159Z,10.98
2023-05-03T00:01:15.637Z,10.89
2023-05-03T00:02:19.019Z,10.94
2023-05-03T00:03:23.304Z,10.95
2023-05-03T00:04:25.961Z,11.00
2023-05-03T00:05:28.261Z,11.05
2023-05-03T00:06:30.988Z,11.06
2023-05-03T00:07:33.686Z,11.11
2023-05-03T00:08:35.913Z,11.11
2023-05-03T00:09:38.147Z,11.05
2023-05-03T00:10:40.473Z,11.01
2023-05-03T00:11:43.031Z,11.07
2023-05-03T00:12:45.567Z,11.07
2023-05-03T00:13:47.879Z,11.07
2023-05-03T00:14:52.254Z,11.08
2023-05-03T00:15:54.922Z,11.10
2023-05-03T00:16:58.479Z,11.12
2023-05-03T00:18:01.234Z,11.10
2023-05-03T00:19:04.036Z,11.02
2023-05-03T00:20:08.678Z,10.98
2023-05-03T00:21:10.971Z,11.00
2023-05-03T00:22:13.676Z,11.04
2023-05-03T00:23:16.184Z,11.10
2023-05-03T00:24:18.494Z,11.11
2023-05-03T00:25:20.709Z,11.05
2023-05-03T00:26:23.127Z,11.04
2023-05-03T00:27:25.658Z,11.07
2023-05-03T00:28:27.986Z,11.08
2023-05-03T00:29:30.415Z,11.09
2023-05-03T00:30:33.497Z,11.09
2023-05-03T00:31:36.082Z,11.05
2023-05-03T00:32:38.685Z,10.97
2023-05-03T00:33:41.168Z,11.00
2023-05-03T00:34:44.147Z,11.06
2023-05-03T00:35:46.557Z,11.09
2023-05-03T00:36:48.995Z,11.09
2023-05-03T00:37:51.331Z,11.06
2023-05-03T00:38:54.450Z,11.07
2023-05-03T00:39:56.721Z,11.07
2023-05-03T00:41:01.520Z,10.91
2023-05-03T00:42:04.059Z,10.91
2023-05-03T00:43:06.872Z,10.99
2023-05-03T00:44:09.732Z,11.01
2023-05-03T00:45:12.355Z,10.98
2023-05-03T00:46:17.464Z,11.02
2023-05-03T00:47:19.671Z,10.96
2023-05-03T00:48:23.009Z,10.99
2023-05-03T00:49:25.399Z,10.98
2023-05-03T00:50:28.031Z,10.98
2023-05-03T00:51:30.569Z,10.96
2023-05-03T00:52:34.400Z,10.96
2023-05-03T00:53:37.683Z,10.93
2023-05-03T00:54:43.567Z,10.92
2023-05-03T00:55:46.035Z,10.93
2023-05-03T00:56:52.217Z,10.90
2023-05-03T00:57:53.133Z,10.90
2023-05-03T00:58:55.355Z,10.90
2023-05-03T00:59:58.553Z,10.86
2023-05-03T01:01:02.646Z,10.83
2023-05-03T01:02:05.295Z,10.83
2023-05-03T01:03:07.878Z,10.81
2023-05-03T01:04:10.297Z,10.82
2023-05-03T01:05:13.048Z,10.85
2023-05-03T01:06:19.315Z,10.85
2023-05-03T01:07:28.437Z,10.85
2023-05-03T01:10:06.355Z,10.96
2023-05-03T01:11:13.546Z,10.86
2023-05-03T01:12:22.383Z,10.86
2023-05-03T01:13:28.112Z,10.86
2023-05-03T01:14:42.995Z,10.88
2023-05-03T01:15:48.706Z,10.88
2023-05-03T01:16:56.535Z,10.88
2023-05-03T01:18:08.115Z,10.82
2023-05-03T01:19:26.196Z,10.85
2023-05-03T01:20:32.254Z,10.82
2023-05-03T01:21:37.264Z,10.84
2023-05-03T01:22:52.477Z,10.85
2023-05-03T01:23:58.276Z,10.80
2023-05-03T01:25:09.697Z,10.66
2023-05-03T01:26:23.402Z,10.55
2023-05-03T01:27:25.762Z,10.59
2023-05-03T01:28:28.100Z,10.61
2023-05-03T01:29:30.515Z,10.65
2023-05-03T01:30:34.517Z,10.68
2023-05-03T01:33:07.473Z,10.76
2023-05-03T01:34:41.124Z,10.68
2023-05-03T01:36:08.343Z,10.73
2023-05-03T01:37:12.578Z,10.78
2023-05-03T01:38:17.124Z,10.81
2023-05-03T01:39:25.937Z,10.81
2023-05-03T01:40:30.875Z,10.80
2023-05-03T01:41:36.350Z,10.77
2023-05-03T01:42:39.725Z,10.67
2023-05-03T01:43:44.007Z,10.62
2023-05-03T01:44:47.877Z,10.64
2023-05-03T01:45:50.540Z,10.62
2023-05-03T01:46:53.364Z,10.61
2023-05-03T01:47:56.608Z,10.56
2023-05-03T01:48:59.087Z,10.60
2023-05-03T01:50:01.630Z,10.57
2023-05-03T01:51:04.248Z,10.58
2023-05-03T01:52:07.662Z,10.52
2023-05-03T01:53:09.941Z,10.55
2023-05-03T01:54:12.401Z,10.47
2023-05-03T01:55:15.536Z,10.44
2023-05-03T01:56:18.056Z,10.48
2023-05-03T01:57:20.370Z,10.51
2023-05-03T01:58:22.678Z,10.53
2023-05-03T01:59:25.096Z,10.55
2023-05-03T02:00:27.749Z,10.57
2023-05-03T02:01:30.216Z,10.49
2023-05-03T02:02:32.564Z,10.52
2023-05-03T02:03:34.940Z,10.52
2023-05-03T02:04:37.695Z,10.54
2023-05-03T02:05:41.978Z,10.51
2023-05-03T02:06:44.541Z,10.53
2023-05-03T02:07:47.150Z,10.53
2023-05-03T02:08:49.572Z,10.53
2023-05-03T02:09:51.880Z,10.48
2023-05-03T02:10:54.426Z,10.42
2023-05-03T02:11:56.520Z,10.44
2023-05-03T02:12:58.836Z,10.45
2023-05-03T02:14:01.239Z,10.46
2023-05-03T02:15:04.457Z,10.47
2023-05-03T02:16:07.022Z,10.45
2023-05-03T02:17:09.830Z,10.43
2023-05-03T02:18:13.890Z,10.43
2023-05-03T02:19:16.696Z,10.47
2023-05-03T02:20:19.451Z,10.50
2023-05-03T02:21:21.777Z,10.45
2023-05-03T02:22:25.791Z,10.42
2023-05-03T02:23:30.076Z,10.37
2023-05-03T02:24:34.286Z,10.42
2023-05-03T02:25:36.656Z,10.46
2023-05-03T02:26:39.083Z,10.49
2023-05-03T02:27:41.328Z,10.46
2023-05-03T02:28:43.728Z,10.48
2023-05-03T02:29:46.150Z,10.47
2023-05-03T02:30:49.291Z,10.48
2023-05-03T02:31:52.583Z,10.48
2023-05-03T02:32:55.316Z,10.44
2023-05-03T02:33:57.961Z,10.38
2023-05-03T02:35:01.298Z,10.34
2023-05-03T02:36:04.298Z,10.32
2023-05-03T02:37:07.532Z,10.30
2023-05-03T02:38:10.119Z,10.29
2023-05-03T02:39:12.493Z,10.31
2023-05-03T02:40:15.825Z,10.33
2023-05-03T02:41:18.469Z,10.33
2023-05-03T02:42:22.173Z,10.30
2023-05-03T02:43:25.152Z,10.32
2023-05-03T02:44:28.667Z,10.32
2023-05-03T02:45:31.050Z,10.34
2023-05-03T02:46:33.518Z,10.32
2023-05-03T02:47:36.081Z,10.27
2023-05-03T02:48:39.245Z,10.27
2023-05-03T02:49:41.497Z,10.20
2023-05-03T02:50:43.837Z,10.20
2023-05-03T02:51:46.434Z,10.26
2023-05-03T02:52:48.649Z,10.25
2023-05-03T02:53:50.994Z,10.24
2023-05-03T02:54:54.069Z,10.22
2023-05-03T02:55:56.841Z,10.20
2023-05-03T02:56:59.597Z,10.21
2023-05-03T02:58:02.023Z,10.19
2023-05-03T02:59:04.752Z,10.23
2023-05-03T03:00:10.922Z,10.23
2023-05-03T03:01:13.852Z,10.23
2023-05-03T03:02:16.614Z,10.26
2023-05-03T03:03:19.929Z,10.20
2023-05-03T03:04:22.457Z,10.20
2023-05-03T03:05:26.449Z,10.27
2023-05-03T03:06:29.030Z,10.30
2023-05-03T03:07:31.950Z,10.32
2023-05-03T03:08:35.305Z,10.31
2023-05-03T03:09:37.908Z,10.32
2023-05-03T03:10:40.623Z,10.33
2023-05-03T03:11:44.045Z,10.24
2023-05-03T03:12:46.735Z,10.25
2023-05-03T03:13:51.946Z,10.23
2023-05-03T03:14:55.993Z,10.25
2023-05-03T03:15:58.851Z,10.31
2023-05-03T03:17:04.401Z,10.34
2023-05-03T03:18:07.709Z,10.36
2023-05-03T03:19:11.782Z,10.38
2023-05-03T03:20:15.397Z,10.39
2023-05-03T03:21:19.830Z,10.42
2023-05-03T03:22:22.477Z,10.41
2023-05-03T03:23:24.805Z,10.46
2023-05-03T03:24:27.134Z,10.50
2023-05-03T03:25:29.775Z,10.50
2023-05-03T03:26:32.640Z,10.45
2023-05-03T03:27:37.543Z,10.48
2023-05-03T03:28:40.366Z,10.50
2023-05-03T03:29:43.608Z,10.54
2023-05-03T03:30:47.926Z,10.54
2023-05-03T03:31:52.894Z,10.54
2023-05-03T03:32:55.845Z,10.53
2023-05-03T03:34:00.137Z,10.55
2023-05-03T03:35:02.773Z,10.54
2023-05-03T03:36:09.450Z,10.53
2023-05-03T03:37:12.052Z,10.55
2023-05-03T03:38:15.610Z,10.57
2023-05-03T03:39:20.796Z,10.58
2023-05-03T03:40:24.226Z,10.61
2023-05-03T03:41:27.033Z,10.58
2023-05-03T03:42:31.445Z,10.59
2023-05-03T03:43:34.269Z,10.60
2023-05-03T03:44:38.120Z,10.62
2023-05-03T03:45:41.776Z,10.60
2023-05-03T03:46:44.730Z,10.60
2023-05-03T03:47:47.329Z,10.60
2023-05-03T03:48:50.057Z,10.58
2023-05-03T03:49:52.481Z,10.60
2023-05-03T03:50:55.764Z,10.61
2023-05-03T03:51:58.656Z,10.61
2023-05-03T03:53:01.098Z,10.62
2023-05-03T03:54:04.870Z,10.59
2023-05-03T03:55:08.182Z,10.61
2023-05-03T03:56:11.492Z,10.66
2023-05-03T03:57:13.924Z,10.64
2023-05-03T03:58:16.345Z,10.61
2023-05-03T03:59:19.892Z,10.65
2023-05-03T04:00:24.018Z,10.73
2023-05-03T04:01:27.568Z,10.73
2023-05-03T04:02:30.700Z,10.68
2023-05-03T04:03:34.326Z,10.66
2023-05-03T04:04:37.012Z,10.69
2023-05-03T04:05:39.326Z,10.71
2023-05-03T04:06:43.216Z,10.72
2023-05-03T04:07:47.201Z,10.71
2023-05-03T04:08:50.077Z,10.73
2023-05-03T04:09:52.805Z,10.72
2023-05-03T04:10:55.427Z,10.72
2023-05-03T04:11:57.861Z,10.73
2023-05-03T04:13:00.899Z,10.72
2023-05-03T04:14:04.064Z,10.73
2023-05-03T04:15:08.250Z,10.75
2023-05-03T04:16:11.468Z,10.77
2023-05-03T04:17:15.033Z,10.75
2023-05-03T04:18:17.610Z,10.76
2023-05-03T04:19:22.076Z,10.77
2023-05-03T04:20:24.366Z,10.77
2023-05-03T04:21:29.967Z,10.80
2023-05-03T04:22:32.700Z,10.80
2023-05-03T04:23:35.140Z,10.81
2023-05-03T04:24:40.110Z,10.81
2023-05-03T04:25:45.924Z,11.02
2023-05-03T04:26:50.851Z,11.35
2023-05-03T04:27:55.121Z,11.61
2023-05-03T04:28:58.110Z,11.71
2023-05-03T04:30:01.370Z,11.73
2023-05-03T04:31:05.926Z,11.97
2023-05-03T04:32:09.329Z,11.85
2023-05-03T04:33:13.161Z,11.73
2023-05-03T04:34:16.357Z,11.78
2023-05-03T04:35:20.679Z,11.58
2023-05-03T04:36:25.337Z,11.61
2023-05-03T04:37:28.800Z,11.51
2023-05-03T04:38:31.901Z,11.42
2023-05-03T04:39:38.304Z,11.53
2023-05-03T04:40:41.531Z,11.64
2023-05-03T04:41:47.208Z,11.70
2023-05-03T04:42:50.946Z,11.60
2023-05-03T04:43:53.890Z,11.49
2023-05-03T04:45:00.016Z,11.46
2023-05-03T04:46:05.613Z,11.46
2023-05-03T04:47:08.463Z,11.49
2023-05-03T04:48:12.054Z,11.63
2023-05-03T04:49:16.080Z,11.74
2023-05-03T04:50:19.073Z,11.61
2023-05-03T04:51:23.501Z,11.67
2023-05-03T04:52:27.084Z,11.59
2023-05-03T04:53:32.703Z,11.53
2023-05-03T04:54:36.778Z,11.51
2023-05-03T04:55:39.194Z,11.53
2023-05-03T04:56:41.628Z,11.47
2023-05-03T04:57:48.849Z,11.69
2023-05-03T04:58:55.206Z,11.69
2023-05-03T04:59:58.006Z,11.77
2023-05-03T05:01:01.967Z,11.94
2023-05-03T05:02:05.444Z,12.01
2023-05-03T05:03:08.230Z,12.02
2023-05-03T05:04:11.718Z,12.09
2023-05-03T05:05:17.959Z,11.94
2023-05-03T05:06:21.810Z,12.12
2023-05-03T05:07:24.508Z,12.12
2023-05-03T05:08:26.677Z,12.11
2023-05-03T05:09:31.067Z,12.15
2023-05-03T05:10:40.841Z,12.14
2023-05-03T05:11:44.716Z,12.21
2023-05-03T05:12:47.093Z,12.22
2023-05-03T05:13:49.616Z,12.30
2023-05-03T05:14:53.639Z,12.26
2023-05-03T05:15:56.020Z,12.26
2023-05-03T05:16:59.131Z,12.33
2023-05-03T05:18:02.411Z,12.38
2023-05-03T05:19:05.347Z,12.44
2023-05-03T05:20:11.339Z,12.58
2023-05-03T05:21:14.575Z,12.55
2023-05-03T05:22:20.256Z,12.65
2023-05-03T05:23:24.293Z,12.66
2023-05-03T05:24:26.720Z,12.70
2023-05-03T05:25:29.024Z,12.66
2023-05-03T05:26:32.092Z,12.62
2023-05-03T05:27:35.665Z,12.65
2023-05-03T05:28:38.670Z,12.69
2023-05-03T05:29:41.449Z,12.62
2023-05-03T05:30:43.729Z,12.54
2023-05-03T05:31:46.763Z,12.54
2023-05-03T05:32:49.377Z,12.60
2023-05-03T05:33:51.872Z,12.65
2023-05-03T05:34:57.081Z,12.85
2023-05-03T05:36:01.440Z,12.87
2023-05-03T05:37:05.093Z,12.97
2023-05-03T05:38:08.167Z,13.02
2023-05-03T05:39:11.392Z,13.03
2023-05-03T05:40:15.032Z,13.03
2023-05-03T05:41:19.361Z,13.05
2023-05-03T05:42:22.981Z,13.11
2023-05-03T05:43:25.187Z,13.21
2023-05-03T05:44:27.619Z,13.21
2023-05-03T05:45:30.358Z,13.25
2023-05-03T05:46:34.046Z,13.42
2023-05-03T05:47:36.453Z,13.41
2023-05-03T05:48:41.678Z,13.44
2023-05-03T05:49:44.427Z,13.52
2023-05-03T05:50:49.330Z,13.53
2023-05-03T05:51:51.870Z,13.52
2023-05-03T05:52:55.357Z,13.52
2023-05-03T05:53:58.405Z,13.60
2023-05-03T05:55:00.836Z,13.69
2023-05-03T05:56:03.441Z,13.75
2023-05-03T05:57:07.539Z,13.77
2023-05-03T05:58:12.220Z,13.78
2023-05-03T05:59:16.533Z,13.76
2023-05-03T06:00:20.909Z,13.80
2023-05-03T06:01:23.391Z,13.87
2023-05-03T06:02:27.058Z,13.91
2023-05-03T06:03:33.765Z,13.94
2023-05-03T06:04:38.885Z,13.97
2023-05-03T06:05:42.420Z,14.00
2023-05-03T06:06:46.038Z,14.05
2023-05-03T06:07:50.987Z,14.04
2023-05-03T06:08:53.476Z,14.06
2023-05-03T06:09:56.724Z,14.10
2023-05-03T06:10:59.464Z,14.21
2023-05-03T06:12:04.295Z,14.26
2023-05-03T06:13:09.329Z,14.31
2023-05-03T06:14:11.914Z,14.32
2023-05-03T06:15:16.209Z,14.34
2023-05-03T06:16:20.241Z,14.46
2023-05-03T06:17:23.064Z,14.41
2023-05-03T06:18:25.338Z,14.46
2023-05-03T06:19:27.904Z,14.46
2023-05-03T06:20:30.227Z,14.53
2023-05-03T06:21:34.012Z,14.53
2023-05-03T06:22:36.967Z,14.57
2023-05-03T06:23:39.878Z,14.60
2023-05-03T06:24:43.170Z,14.60
2023-05-03T06:25:47.179Z,14.64
2023-05-03T06:26:49.734Z,14.68
2023-05-03T06:27:53.649Z,14.78
2023-05-03T06:28:59.587Z,14.78
2023-05-03T06:30:03.880Z,14.78
2023-05-03T06:31:07.704Z,14.83
2023-05-03T06:32:10.668Z,14.82
2023-05-03T06:33:14.233Z,14.93
2023-05-03T06:34:21.123Z,14.88
2023-05-03T06:35:24.021Z,14.98
2023-05-03T06:36:27.708Z,14.95
2023-05-03T06:37:30.080Z,15.02
2023-05-03T06:38:32.399Z,15.07
2023-05-03T06:39:35.600Z,15.13
2023-05-03T06:40:38.528Z,15.16
2023-05-03T06:41:42.283Z,15.17
2023-05-03T06:42:45.154Z,15.23
2023-05-03T06:43:53.142Z,15.31
2023-05-03T06:44:56.428Z,15.38
2023-05-03T06:45:59.135Z,15.36
2023-05-03T06:47:01.703Z,15.39
2023-05-03T06:48:04.967Z,15.44
2023-05-03T06:49:07.762Z,15.49
2023-05-03T06:50:10.746Z,15.49
2023-05-03T06:51:14.120Z,15.57
2023-05-03T06:52:16.878Z,15.60
2023-05-03T06:53:19.415Z,15.68
2023-05-03T06:54:23.909Z,15.68
2023-05-03T06:55:27.281Z,15.73
2023-05-03T06:56:29.978Z,15.79
2023-05-03T06:57:32.426Z,15.83
2023-05-03T06:58:34.665Z,15.83
2023-05-03T06:59:36.972Z,15.87
2023-05-03T07:00:40.019Z,15.94
2023-05-03T07:01:42.521Z,15.90
2023-05-03T07:02:44.954Z,16.01
2023-05-03T07:03:47.148Z,16.07
2023-05-03T07:04:50.115Z,16.14
2023-05-03T07:05:53.319Z,16.18
2023-05-03T07:06:57.425Z,16.19
2023-05-03T07:07:59.668Z,16.20
2023-05-03T07:09:02.944Z,16.25
2023-05-03T07:10:06.599Z,16.30
2023-05-03T07:11:09.566Z,16.34
2023-05-03T07:12:12.020Z,16.37
2023-05-03T07:13:15.126Z,16.40
2023-05-03T07:14:17.487Z,16.39
2023-05-03T07:15:20.137Z,16.47
2023-05-03T07:16:24.452Z,16.47
2023-05-03T07:17:26.936Z,16.52
2023-05-03T07:18:29.393Z,16.52
2023-05-03T07:19:32.729Z,16.61
2023-05-03T07:20:35.183Z,16.59
2023-05-03T07:21:39.092Z,16.70
2023-05-03T07:22:42.661Z,16.72
2023-05-03T07:23:44.912Z,16.75
2023-05-03T07:24:47.199Z,16.79
2023-05-03T07:25:49.597Z,16.77
2023-05-03T07:26:53.045Z,16.82
2023-05-03T07:27:55.414Z,16.88
2023-05-03T07:28:57.740Z,16.87
2023-05-03T07:30:00.438Z,16.93
2023-05-03T07:31:05.671Z,16.95
2023-05-03T07:32:08.539Z,16.96
2023-05-03T07:33:11.872Z,17.01
2023-05-03T07:34:14.396Z,17.13
2023-05-03T07:35:17.751Z,17.14
2023-05-03T07:36:20.424Z,17.20
2023-05-03T07:37:22.816Z,17.24
2023-05-03T07:38:25.082Z,17.31
2023-05-03T07:39:28.525Z,17.30
2023-05-03T07:40:33.660Z,17.42
2023-05-03T07:41:36.533Z,17.42
2023-05-03T07:42:39.113Z,17.36
2023-05-03T07:43:41.958Z,17.37
2023-05-03T07:44:44.717Z,17.43
2023-05-03T07:45:47.314Z,17.44
2023-05-03T07:46:49.983Z,17.42
2023-05-03T07:47:52.521Z,17.46
2023-05-03T07:48:54.918Z,17.51
2023-05-03T07:49:57.560Z,17.54
2023-05-03T07:51:00.311Z,17.59
2023-05-03T07:52:02.632Z,17.59
2023-05-03T07:53:05.168Z,17.65
2023-05-03T07:54:07.398Z,17.69
2023-05-03T07:55:10.196Z,17.72
2023-05-03T07:56:12.702Z,17.75
2023-05-03T07:57:18.824Z,17.82
2023-05-03T07:58:28.395Z,17.88
2023-05-03T07:59:25.651Z,17.95
2023-05-03T08:00:28.369Z,18.00
2023-05-03T08:01:31.972Z,17.97
2023-05-03T08:02:35.245Z,18.06
2023-05-03T08:03:38.495Z,18.12
2023-05-03T08:04:41.356Z,18.07
2023-05-03T08:05:43.950Z,18.13
2023-05-03T08:06:47.636Z,18.13
2023-05-03T08:07:50.303Z,18.23
2023-05-03T08:08:52.468Z,18.29
2023-05-03T08:09:59.149Z,18.31
2023-05-03T08:11:02.638Z,18.26
2023-05-03T08:12:10.164Z,18.27
2023-05-03T08:13:21.671Z,18.25
2023-05-03T08:14:24.182Z,18.32
2023-05-03T08:15:27.327Z,18.40
2023-05-03T08:16:30.989Z,18.35
2023-05-03T08:17:42.359Z,18.37
2023-05-03T08:18:46.175Z,18.48
2023-05-03T08:19:49.152Z,18.51
2023-05-03T08:20:51.569Z,18.51
2023-05-03T08:21:55.092Z,18.43
2023-05-03T08:22:58.799Z,18.39
2023-05-03T08:24:01.719Z,18.31
2023-05-03T08:25:05.823Z,18.31
2023-05-03T08:26:10.532Z,18.29
2023-05-03T08:27:12.806Z,18.13
2023-05-03T08:28:15.973Z,18.14
2023-05-03T08:29:18.301Z,18.25
2023-05-03T08:30:22.812Z,18.22
2023-05-03T08:31:25.282Z,18.21
2023-05-03T08:32:29.183Z,18.24
2023-05-03T08:33:31.769Z,18.34
2023-05-03T08:34:33.853Z,18.30
2023-05-03T08:35:37.831Z,18.29
2023-05-03T08:36:40.214Z,18.29
2023-05-03T08:37:43.680Z,18.31
2023-05-03T08:38:45.943Z,18.28
2023-05-03T08:39:48.461Z,18.34
2023-05-03T08:40:53.740Z,18.33
2023-05-03T08:41:56.232Z,18.38
2023-05-03T08:43:01.233Z,18.42
2023-05-03T08:44:05.028Z,18.34
2023-05-03T08:45:09.971Z,18.36
2023-05-03T08:46:14.204Z,18.36
2023-05-03T08:47:17.063Z,18.40
2023-05-03T08:48:20.270Z,18.35
2023-05-03T08:49:25.005Z,18.31
2023-05-03T08:50:27.908Z,18.31
2023-05-03T08:51:31.704Z,18.37
2023-05-03T08:52:34.757Z,18.34
2023-05-03T08:53:37.244Z,18.45
2023-05-03T08:54:39.789Z,18.45
2023-05-03T08:55:42.348Z,18.44
2023-05-03T08:56:46.046Z,18.48
2023-05-03T08:57:48.501Z,18.48
2023-05-03T08:58:50.810Z,18.49
2023-05-03T08:59:56.095Z,18.46
2023-05-03T09:01:07.815Z,18.48
2023-05-03T09:02:11.794Z,18.53
2023-05-03T09:03:14.337Z,18.52
2023-05-03T09:04:17.387Z,18.57
2023-05-03T09:05:25.326Z,18.61
2023-05-03T09:06:28.281Z,18.50
2023-05-03T09:07:30.662Z,18.56
2023-05-03T09:08:36.526Z,18.65
2023-05-03T09:09:40.120Z,18.68
2023-05-03T09:10:43.392Z,18.76
2023-05-03T09:11:45.974Z,18.82
2023-05-03T09:12:48.396Z,18.82
2023-05-03T09:13:52.880Z,18.85
2023-05-03T09:14:55.410Z,18.81
2023-05-03T09:15:58.884Z,18.87
2023-05-03T09:17:17.195Z,18.98
2023-05-03T09:18:20.505Z,18.86
2023-05-03T09:19:23.731Z,19.01
2023-05-03T09:20:37.296Z,18.92
2023-05-03T09:21:42.590Z,19.05
2023-05-03T09:23:59.394Z,19.09
2023-05-03T09:25:01.658Z,19.12
2023-05-03T09:26:04.166Z,19.21
2023-05-03T09:27:12.683Z,19.09
2023-05-03T09:28:16.485Z,19.14
2023-05-03T09:29:33.744Z,19.06
2023-05-03T09:30:36.468Z,19.05
2023-05-03T09:31:42.540Z,19.04
2023-05-03T09:32:48.899Z,19.02
2023-05-03T09:33:52.916Z,19.12
2023-05-03T09:34:58.759Z,19.08
2023-05-03T09:36:02.820Z,19.07
2023-05-03T09:37:06.075Z,19.15
2023-05-03T09:38:10.204Z,19.17
2023-05-03T09:39:19.340Z,19.17
2023-05-03T09:40:21.696Z,19.22
2023-05-03T09:41:29.698Z,19.28
2023-05-03T09:42:31.944Z,19.38
2023-05-03T09:43:37.724Z,19.38
2023-05-03T09:44:41.709Z,19.40
2023-05-03T09:45:44.789Z,19.32
2023-05-03T09:47:06.657Z,19.36
2023-05-03T09:48:09.483Z,19.42
2023-05-03T09:49:11.964Z,19.40
2023-05-03T09:50:15.290Z,19.49
2023-05-03T09:51:18.380Z,19.47
2023-05-03T09:52:23.765Z,19.56
2023-05-03T09:53:27.699Z,19.64
2023-05-03T09:54:30.899Z,19.47
2023-05-03T09:55:36.035Z,19.57
2023-05-03T09:56:39.512Z,19.57
2023-05-03T09:57:45.760Z,19.45
2023-05-03T09:58:48.234Z,19.52
2023-05-03T09:59:51.429Z,19.52
2023-05-03T10:00:55.069Z,19.35
2023-05-03T10:02:00.313Z,19.33
2023-05-03T10:03:06.131Z,19.28
2023-05-03T10:04:10.724Z,19.37
2023-05-03T10:05:14.271Z,19.30
2023-05-03T10:06:27.484Z,19.42
2023-05-03T10:07:32.007Z,19.42
2023-05-03T10:08:42.186Z,19.55
2023-05-03T10:09:46.780Z,19.63
2023-05-03T10:10:53.691Z,19.58
2023-05-03T10:11:58.925Z,19.51
2023-05-03T10:13:03.480Z,19.59
2023-05-03T10:14:10.137Z,19.49
2023-05-03T10:15:15.691Z,19.42
2023-05-03T10:16:21.871Z,19.61
2023-05-03T10:17:46.959Z,19.63
2023-05-03T10:18:39.333Z,19.66
2023-05-03T10:19:51.095Z,19.63
2023-05-03T10:20:57.133Z,19.66
2023-05-03T10:22:12.011Z,19.62
2023-05-03T10:23:14.302Z,19.59
2023-05-03T10:24:18.204Z,19.61
2023-05-03T10:25:20.882Z,19.59
2023-05-03T10:26:25.688Z,19.63
2023-05-03T10:28:59.420Z,19.86
2023-05-03T10:30:02.575Z,19.79
2023-05-03T10:31:05.520Z,19.88
2023-05-03T10:32:31.306Z,19.76
2023-05-03T10:33:36.947Z,19.72
2023-05-03T10:34:39.842Z,19.70
2023-05-03T10:35:44.838Z,19.75
2023-05-03T10:36:52.723Z,19.86
2023-05-03T10:37:57.486Z,19.87
2023-05-03T10:39:03.831Z,19.94
2023-05-03T10:40:11.378Z,20.07
2023-05-03T10:41:14.974Z,19.91
2023-05-03T10:42:17.221Z,20.02
2023-05-03T10:43:35.278Z,20.12
2023-05-03T10:44:53.632Z,20.24
2023-05-03T10:45:57.048Z,20.29
2023-05-03T10:47:11.861Z,20.16
2023-05-03T10:48:20.076Z,20.15
2023-05-03T10:49:24.908Z,20.24
2023-05-03T10:50:27.974Z,20.27
2023-05-03T10:51:34.550Z,20.30
2023-05-03T10:52:43.652Z,20.24
2023-05-03T10:53:45.829Z,20.26
2023-05-03T10:54:50.977Z,20.31
2023-05-03T10:56:11.307Z,20.29
2023-05-03T10:57:13.645Z,20.44
2023-05-03T10:58:16.582Z,20.48
2023-05-03T10:59:20.347Z,20.59
2023-05-03T11:00:32.823Z,20.65
2023-05-03T11:01:36.283Z,20.63
2023-05-03T11:02:42.300Z,20.65
2023-05-03T11:03:51.929Z,20.69
2023-05-03T11:04:57.974Z,20.58
2023-05-03T11:06:00.522Z,20.61
2023-05-03T11:07:03.843Z,20.55
2023-05-03T11:08:18.743Z,20.62
2023-05-03T11:09:23.257Z,20.52
2023-05-03T11:10:25.632Z,20.53
2023-05-03T11:11:28.037Z,20.58
2023-05-03T11:12:30.527Z,20.61
2023-05-03T11:13:33.205Z,20.70
2023-05-03T11:14:35.521Z,20.68
2023-05-03T11:15:38.444Z,20.72
2023-05-03T11:16:43.162Z,20.78
2023-05-03T11:17:46.917Z,20.74
2023-05-03T11:18:50.633Z,20.72
2023-05-03T11:19:53.143Z,20.76
2023-05-03T11:20:55.781Z,20.96
2023-05-03T11:21:58.431Z,21.15
2023-05-03T11:23:01.982Z,21.29
2023-05-03T11:24:05.831Z,21.20
2023-05-03T11:25:10.422Z,21.03
2023-05-03T11:26:13.978Z,21.09
2023-05-03T11:27:19.978Z,21.12
2023-05-03T11:28:22.246Z,21.15
2023-05-03T11:29:25.513Z,21.16
2023-05-03T11:30:29.766Z,21.22
2023-05-03T11:31:32.530Z,21.26
2023-05-03T11:32:36.103Z,21.34
2023-05-03T11:33:39.732Z,21.30
2023-05-03T11:34:42.489Z,21.39
2023-05-03T11:35:45.658Z,21.50
2023-05-03T11:36:48.834Z,21.50
2023-05-03T11:37:51.239Z,21.55
2023-05-03T11:38:54.214Z,21.62
2023-05-03T11:39:56.589Z,21.65
2023-05-03T11:41:00.302Z,21.69
2023-05-03T11:42:05.927Z,21.55
2023-05-03T11:43:09.300Z,21.61
2023-05-03T11:44:17.696Z,21.55
2023-05-03T11:45:16.066Z,21.63
2023-05-03T11:46:25.911Z,21.62
2023-05-03T11:47:28.316Z,21.42
2023-05-03T11:48:33.614Z,21.60
2023-05-03T11:49:36.265Z,21.72
2023-05-03T11:50:47.559Z,21.71
2023-05-03T11:51:54.557Z,21.54
2023-05-03T11:52:56.932Z,21.51
2023-05-03T11:54:20.571Z,21.73
2023-05-03T11:55:10.250Z,21.78
2023-05-03T11:56:20.411Z,21.86
2023-05-03T11:57:24.878Z,21.81
2023-05-03T11:58:28.342Z,21.89
2023-05-03T11:59:35.360Z,21.79
2023-05-03T12:00:37.918Z,21.94
2023-05-03T12:01:43.171Z,22.08
2023-05-03T12:02:48.552Z,21.95
2023-05-03T12:03:57.319Z,22.11
2023-05-03T12:05:01.964Z,22.30
2023-05-03T12:06:06.552Z,22.28
2023-05-03T12:07:11.515Z,22.08
2023-05-03T12:08:17.951Z,22.06
2023-05-03T12:09:24.522Z,22.09
2023-05-03T12:10:33.884Z,22.24
2023-05-03T12:11:43.895Z,22.26
2023-05-03T12:12:57.758Z,21.91
2023-05-03T12:14:02.858Z,21.83
2023-05-03T12:15:08.105Z,22.05
2023-05-03T12:16:14.633Z,22.11
2023-05-03T12:17:21.310Z,22.02
2023-05-03T12:18:23.994Z,22.16
2023-05-03T12:19:32.882Z,22.41
2023-05-03T12:21:53.280Z,22.60
2023-05-03T12:22:57.827Z,22.73
2023-05-03T12:24:01.223Z,22.65
2023-05-03T12:25:04.795Z,22.41
2023-05-03T12:26:10.081Z,22.58
2023-05-03T12:27:13.895Z,22.85
2023-05-03T12:28:20.946Z,23.13
2023-05-03T12:29:24.579Z,23.13
2023-05-03T12:30:28.936Z,23.10
2023-05-03T12:31:34.497Z,23.22
2023-05-03T12:32:39.064Z,23.05
2023-05-03T12:33:43.622Z,23.16
2023-05-03T12:34:46.941Z,23.33
2023-05-03T12:35:52.785Z,22.97
2023-05-03T12:36:56.569Z,22.87
2023-05-03T12:38:03.287Z,22.83
2023-05-03T12:39:10.112Z,22.71
2023-05-03T12:40:32.405Z,22.78
2023-05-03T12:42:22.774Z,22.73
2023-05-03T12:43:25.603Z,22.81
2023-05-03T12:44:29.218Z,22.92
2023-05-03T12:45:34.291Z,22.83
2023-05-03T12:46:36.892Z,22.83
2023-05-03T12:47:44.133Z,22.96
2023-05-03T12:49:51.960Z,23.26
2023-05-03T12:50:57.635Z,23.11
2023-05-03T12:52:29.495Z,23.10
2023-05-03T12:53:09.323Z,23.21
2023-05-03T12:54:11.665Z,22.97
2023-05-03T12:55:18.173Z,22.86
2023-05-03T12:56:23.801Z,23.02
2023-05-03T12:57:25.032Z,22.90
2023-05-03T12:59:41.091Z,23.18
2023-05-03T13:00:37.694Z,23.51
2023-05-03T13:04:05.210Z,23.58
2023-05-03T13:04:58.734Z,23.60
2023-05-03T13:06:01.097Z,23.60
2023-05-03T13:08:10.357Z,23.72
2023-05-03T13:09:20.846Z,23.54
2023-05-03T13:11:22.022Z,23.65
2023-05-03T13:12:26.088Z,23.82
2023-05-03T13:13:28.469Z,24.06
2023-05-03T13:14:31.175Z,24.37
2023-05-03T13:15:37.065Z,24.18
2023-05-03T13:16:40.877Z,24.16
2023-05-03T13:17:45.306Z,24.28
2023-05-03T13:18:48.368Z,24.30
2023-05-03T13:19:51.752Z,24.47
2023-05-03T13:20:54.149Z,24.24
2023-05-03T13:21:56.479Z,24.24
2023-05-03T13:22:59.125Z,24.59
2023-05-03T13:24:02.213Z,24.84
2023-05-03T13:25:07.210Z,24.81
2023-05-03T13:26:09.911Z,24.69
2023-05-03T13:27:12.864Z,23.98
2023-05-03T13:28:17.902Z,23.84
2023-05-03T13:29:22.873Z,24.13
2023-05-03T13:30:25.320Z,24.18
2023-05-03T13:31:29.526Z,24.39
2023-05-03T13:32:32.714Z,24.69
2023-05-03T13:33:38.012Z,24.86
2023-05-03T13:34:41.306Z,24.66
2023-05-03T13:35:45.866Z,24.44
2023-05-03T13:36:49.003Z,24.00
2023-05-03T13:37:52.189Z,23.78
2023-05-03T13:38:55.166Z,23.67
2023-05-03T13:39:58.980Z,24.00
2023-05-03T13:41:07.902Z,24.30
2023-05-03T13:42:10.665Z,24.49
2023-05-03T13:43:12.774Z,23.88
2023-05-03T13:44:16.261Z,23.87
2023-05-03T13:45:20.736Z,23.78
2023-05-03T13:46:23.674Z,23.78
2023-05-03T13:47:29.139Z,23.70
2023-05-03T13:48:32.705Z,23.94
2023-05-03T13:49:35.525Z,24.04
2023-05-03T13:50:39.496Z,23.80
2023-05-03T13:51:42.180Z,24.05
2023-05-03T13:52:44.793Z,24.18
2023-05-03T13:53:48.362Z,24.19
2023-05-03T13:54:52.673Z,23.76
2023-05-03T13:55:55.841Z,23.71
2023-05-03T13:56:59.470Z,23.48
2023-05-03T13:58:02.894Z,23.49
2023-05-03T13:59:08.079Z,23.60
2023-05-03T14:00:11.718Z,23.57